createdAt,value
2022-12-27T00:00:57.119Z,101701.84
2022-12-27T00:03:24.388Z,101705.97
2022-12-27T00:05:52.444Z,101704.22
2022-12-27T00:08:19.740Z,101701.44
2022-12-27T00:10:46.987Z,101710.00
2022-12-27T00:13:14.382Z,101708.09
2022-12-27T00:15:41.996Z,101715.00
2022-12-27T00:18:09.429Z,101711.53
2022-12-27T00:20:36.984Z,101711.63
2022-12-27T00:23:04.177Z,101710.94
2022-12-27T00:25:31.554Z,101712.97
2022-12-27T00:27:58.799Z,101712.41
2022-12-27T00:30:26.257Z,101720.44
2022-12-27T00:32:53.746Z,101721.38
2022-12-27T00:35:21.146Z,101715.41
2022-12-27T00:37:48.491Z,101714.50
2022-12-27T00:40:15.961Z,101706.72
2022-12-27T00:42:43.190Z,101717.19
2022-12-27T00:45:11.046Z,101718.00
2022-12-27T00:47:38.420Z,101718.06
2022-12-27T00:50:06.124Z,101713.84
2022-12-27T00:52:33.648Z,101707.91
2022-12-27T00:55:00.955Z,101718.47
2022-12-27T00:57:28.181Z,101730.00
2022-12-27T00:59:55.447Z,101719.03
2022-12-27T01:02:22.805Z,101727.03
2022-12-27T01:04:50.198Z,101732.44
2022-12-27T01:07:18.305Z,101732.53
2022-12-27T01:09:45.645Z,101725.88
2022-12-27T01:12:13.056Z,101735.47
2022-12-27T01:14:40.775Z,101740.69
2022-12-27T01:17:08.362Z,101743.28
2022-12-27T01:19:36.858Z,101741.47
2022-12-27T01:22:05.167Z,101743.28
2022-12-27T01:24:33.207Z,101741.66
2022-12-27T01:27:00.718Z,101750.41
2022-12-27T01:29:27.997Z,101756.72
2022-12-27T01:31:55.511Z,101750.88
2022-12-27T01:34:23.223Z,101765.91
2022-12-27T01:36:50.646Z,101759.94
2022-12-27T01:39:17.945Z,101761.13
2022-12-27T01:42:03.633Z,101758.75
2022-12-27T01:44:40.496Z,101765.00
2022-12-27T01:47:40.236Z,101755.72
2022-12-27T01:50:07.865Z,101756.69
2022-12-27T01:52:47.764Z,101766.44
2022-12-27T01:55:40.335Z,101777.91
2022-12-27T01:58:13.636Z,101787.72
2022-12-27T02:00:44.048Z,101798.34
2022-12-27T02:03:13.897Z,101796.69
2022-12-27T02:05:42.643Z,101797.00
2022-12-27T02:08:41.361Z,101800.00
2022-12-27T02:11:10.193Z,101801.91
2022-12-27T02:13:42.423Z,101800.19
2022-12-27T02:16:17.175Z,101792.38
2022-12-27T02:18:46.135Z,101797.50
2022-12-27T02:21:25.467Z,101792.22
2022-12-27T02:24:51.286Z,101805.34
2022-12-27T02:27:24.880Z,101807.84
2022-12-27T02:30:07.382Z,101805.25
2022-12-27T02:33:00.562Z,101807.84
2022-12-27T02:36:09.299Z,101814.78
2022-12-27T02:38:42.650Z,101808.63
2022-12-27T02:41:30.961Z,101806.81
2022-12-27T02:44:16.767Z,101817.19
2022-12-27T02:47:03.706Z,101814.59
2022-12-27T02:49:54.793Z,101819.03
2022-12-27T02:52:46.836Z,101814.59
2022-12-27T02:55:20.396Z,101792.81
2022-12-27T02:58:00.531Z,101799.75
2022-12-27T03:00:54.537Z,101801.59
2022-12-27T03:03:29.058Z,101795.50
2022-12-27T03:06:44.742Z,101796.34
2022-12-27T03:09:49.108Z,101808.47
2022-12-27T03:12:52.863Z,101829.38
2022-12-27T03:15:45.138Z,101822.44
2022-12-27T03:18:18.993Z,101825.88
2022-12-27T03:21:08.075Z,101837.13
2022-12-27T03:23:58.703Z,101811.00
2022-12-27T03:26:28.645Z,101829.38
2022-12-27T03:29:16.557Z,101838.25
2022-12-27T03:32:06.528Z,101845.38
2022-12-27T03:34:40.244Z,101834.22
2022-12-27T03:37:37.912Z,101838.53
2022-12-27T03:40:05.136Z,101830.59
2022-12-27T03:42:56.941Z,101835.56
2022-12-27T03:45:44.859Z,101830.22
2022-12-27T03:48:20.217Z,101839.66
2022-12-27T03:50:54.701Z,101843.00
2022-12-27T03:53:29.887Z,101850.53
2022-12-27T03:55:57.734Z,101844.94
2022-12-27T03:58:25.062Z,101851.53
2022-12-27T04:00:53.621Z,101855.56
2022-12-27T04:03:21.036Z,101847.44
2022-12-27T04:05:48.452Z,101851.53
2022-12-27T04:08:34.310Z,101858.19
2022-12-27T04:11:20.368Z,101859.66
2022-12-27T04:14:06.376Z,101870.91
2022-12-27T04:16:52.160Z,101875.22
2022-12-27T04:19:38.050Z,101877.00
2022-12-27T04:22:24.055Z,101879.69
2022-12-27T04:25:12.162Z,101886.84
2022-12-27T04:27:58.109Z,101885.28
2022-12-27T04:30:43.984Z,101882.84
2022-12-27T04:33:29.923Z,101895.13
2022-12-27T04:36:01.372Z,101912.59
2022-12-27T04:38:31.726Z,101918.84
2022-12-27T04:41:17.727Z,101908.53
2022-12-27T04:44:03.618Z,101901.53
2022-12-27T04:46:49.539Z,101907.56
2022-12-27T04:49:43.145Z,101922.28
2022-12-27T04:52:33.211Z,101932.72
2022-12-27T04:55:11.347Z,101926.53
2022-12-27T04:57:38.675Z,101926.53
2022-12-27T05:00:25.386Z,101914.16
2022-12-27T05:02:53.144Z,101913.13
2022-12-27T05:05:21.580Z,101907.66
2022-12-27T05:08:09.596Z,101906.59
2022-12-27T05:10:55.679Z,101905.41
2022-12-27T05:13:41.626Z,101911.25
2022-12-27T05:16:08.960Z,101918.81
2022-12-27T05:18:36.403Z,101912.72
2022-12-27T05:21:05.778Z,101914.44
2022-12-27T05:23:56.780Z,101920.53
2022-12-27T05:26:28.173Z,101922.25
2022-12-27T05:28:57.600Z,101921.44
2022-12-27T05:31:27.884Z,101931.94
2022-12-27T05:33:57.229Z,101938.09
2022-12-27T05:36:25.358Z,101940.63
2022-12-27T05:38:52.843Z,101942.25
2022-12-27T05:41:20.454Z,101951.59
2022-12-27T05:43:48.018Z,101961.03
2022-12-27T05:46:18.743Z,101965.25
2022-12-27T05:48:46.331Z,101967.78
2022-12-27T05:51:21.403Z,101960.81
2022-12-27T05:53:49.498Z,101958.03
2022-12-27T05:56:19.670Z,101953.56
2022-12-27T05:58:47.703Z,101958.69
2022-12-27T06:01:17.101Z,101962.16
2022-12-27T06:03:45.480Z,101957.78
2022-12-27T06:06:13.418Z,101959.47
2022-12-27T06:08:41.258Z,101963.78
2022-12-27T06:11:12.754Z,101969.78
2022-12-27T06:13:42.632Z,101962.72
2022-12-27T06:16:12.570Z,101972.25
2022-12-27T06:18:41.518Z,101976.47
2022-12-27T06:21:12.461Z,101975.56
2022-12-27T06:23:41.635Z,101983.34
2022-12-27T06:26:12.828Z,101988.66
2022-12-27T06:28:40.300Z,101989.56
2022-12-27T06:31:10.775Z,101994.03
2022-12-27T06:33:38.456Z,101998.50
2022-12-27T06:36:10.381Z,102011.91
2022-12-27T06:38:38.242Z,102010.47
2022-12-27T06:41:08.691Z,101999.50
2022-12-27T06:43:36.119Z,102014.38
2022-12-27T06:46:06.292Z,102014.56
2022-12-27T06:48:34.197Z,102020.81
2022-12-27T06:51:08.190Z,102028.81
2022-12-27T06:53:38.946Z,102035.00
2022-12-27T06:56:06.942Z,102046.28
2022-12-27T06:58:34.907Z,102048.91
2022-12-27T07:01:17.195Z,102051.69
2022-12-27T07:03:48.818Z,102053.28
2022-12-27T07:06:16.177Z,102058.47
2022-12-27T07:08:43.620Z,102060.09
2022-12-27T07:11:12.550Z,102068.66
2022-12-27T07:13:43.260Z,102069.53
2022-12-27T07:16:12.045Z,102061.59
2022-12-27T07:18:39.519Z,102063.81
2022-12-27T07:21:12.015Z,102064.47
2022-12-27T07:23:39.574Z,102065.03
2022-12-27T07:26:12.464Z,102068.28
2022-12-27T07:28:40.554Z,102077.47
2022-12-27T07:31:12.320Z,102077.09
2022-12-27T07:33:40.218Z,102077.75
2022-12-27T07:36:11.522Z,102082.63
2022-12-27T07:38:39.040Z,102087.47
2022-12-27T07:41:06.421Z,102089.88
2022-12-27T07:43:35.342Z,102102.56
2022-12-27T07:46:16.141Z,102113.50
2022-12-27T07:48:43.645Z,102114.03
2022-12-27T07:51:11.522Z,102122.53
2022-12-27T07:53:39.152Z,102126.75
2022-12-27T07:56:21.740Z,102135.38
2022-12-27T07:58:54.732Z,102130.34
2022-12-27T08:01:23.563Z,102140.81
2022-12-27T08:03:51.502Z,102135.72
2022-12-27T08:06:25.185Z,102143.44
2022-12-27T08:08:54.107Z,102145.13
2022-12-27T08:11:21.664Z,102155.53
2022-12-27T08:13:48.893Z,102149.34
2022-12-27T08:16:22.434Z,102151.84
2022-12-27T08:18:49.867Z,102150.00
2022-12-27T08:21:17.303Z,102154.19
2022-12-27T08:23:44.882Z,102155.00
2022-12-27T08:26:12.233Z,102160.97
2022-12-27T08:28:39.733Z,102158.47
2022-12-27T08:31:09.469Z,102159.31
2022-12-27T08:33:37.551Z,102155.88
2022-12-27T08:36:53.399Z,102157.84
2022-12-27T08:38:55.924Z,102159.75
2022-12-27T08:41:23.790Z,102159.91
2022-12-27T08:43:51.177Z,102159.22
2022-12-27T08:46:19.534Z,102162.81
2022-12-27T08:48:48.983Z,102166.38
2022-12-27T08:51:24.825Z,102166.47
2022-12-27T08:53:57.622Z,102174.44
2022-12-27T08:56:28.258Z,102178.84
2022-12-27T08:58:55.562Z,102180.81
2022-12-27T09:01:22.883Z,102183.63
2022-12-27T09:03:50.381Z,102176.88
2022-12-27T09:06:23.815Z,102184.06
2022-12-27T09:08:52.306Z,102182.44
2022-12-27T09:11:31.491Z,102191.31
2022-12-27T09:14:05.052Z,102196.78
2022-12-27T09:16:36.643Z,102194.47
2022-12-27T09:19:04.380Z,102196.34
2022-12-27T09:21:34.239Z,102196.69
2022-12-27T09:24:01.956Z,102200.44
2022-12-27T09:26:31.983Z,102200.78
2022-12-27T09:29:00.746Z,102201.97
2022-12-27T09:31:28.918Z,102197.09
2022-12-27T09:33:57.077Z,102186.88
2022-12-27T09:36:27.769Z,102197.63
2022-12-27T09:38:55.685Z,102199.75
2022-12-27T09:42:45.974Z,102194.78
2022-12-27T09:45:03.948Z,102196.84
2022-12-27T09:47:43.471Z,102186.78
2022-12-27T09:50:15.523Z,102190.50
2022-12-27T09:53:01.880Z,102191.75
2022-12-27T09:55:32.056Z,102192.91
2022-12-27T09:58:13.597Z,102194.97
2022-12-27T10:00:46.012Z,102190.88
2022-12-27T10:03:14.946Z,102198.88
2022-12-27T10:05:46.074Z,102196.44
2022-12-27T10:08:33.471Z,102201.88
2022-12-27T10:11:39.008Z,102213.38
2022-12-27T10:14:23.971Z,102224.13
2022-12-27T10:17:31.527Z,102219.22
2022-12-27T10:20:16.480Z,102228.19
2022-12-27T10:22:52.720Z,102224.94
2022-12-27T10:25:25.789Z,102238.31
2022-12-27T10:28:02.161Z,102229.84
2022-12-27T10:30:31.157Z,102230.97
2022-12-27T10:32:58.482Z,102227.88
2022-12-27T10:35:26.586Z,102231.84
2022-12-27T10:37:54.679Z,102228.03
2022-12-27T10:40:35.618Z,102230.09
2022-12-27T10:43:25.042Z,102231.56
2022-12-27T10:45:53.451Z,102227.47
2022-12-27T10:48:47.360Z,102230.25
2022-12-27T10:51:17.598Z,102234.63
2022-12-27T10:53:47.773Z,102238.00
2022-12-27T10:56:21.304Z,102245.72
2022-12-27T10:58:58.256Z,102247.38
2022-12-27T11:01:29.873Z,102239.63
2022-12-27T11:04:17.659Z,102243.28
2022-12-27T11:06:54.083Z,102248.72
2022-12-27T11:09:33.487Z,102243.69
2022-12-27T11:12:18.980Z,102250.75
2022-12-27T11:15:20.490Z,102243.09
2022-12-27T11:17:55.453Z,102240.56
2022-12-27T11:20:41.739Z,102246.00
2022-12-27T11:23:10.241Z,102249.81
2022-12-27T11:25:53.149Z,102250.22
2022-12-27T11:28:51.638Z,102251.75
2022-12-27T11:31:48.773Z,102242.03
2022-12-27T11:34:32.494Z,102239.50
2022-12-27T11:37:07.750Z,102244.56
2022-12-27T11:39:46.272Z,102244.22
2022-12-27T11:42:29.578Z,102243.91
2022-12-27T11:45:24.338Z,102238.81
2022-12-27T11:48:01.083Z,102239.00
2022-12-27T11:50:28.321Z,102239.00
2022-12-27T11:53:04.728Z,102242.59
2022-12-27T11:55:50.607Z,102241.78
2022-12-27T11:58:46.151Z,102242.47
2022-12-27T12:01:33.306Z,102239.63
2022-12-27T12:04:37.969Z,102239.69
2022-12-27T12:07:24.540Z,102237.28
2022-12-27T12:10:00.963Z,102229.66
2022-12-27T12:12:57.085Z,102229.94
2022-12-27T12:15:58.114Z,102222.06
2022-12-27T12:18:34.480Z,102212.31
2022-12-27T12:21:18.833Z,102209.53
2022-12-27T12:24:31.162Z,102205.00
2022-12-27T12:27:36.011Z,102213.41
2022-12-27T12:30:12.865Z,102204.31
2022-12-27T12:32:59.335Z,102199.72
2022-12-27T12:35:44.014Z,102199.44
2022-12-27T12:38:23.534Z,102197.44
2022-12-27T12:41:02.749Z,102200.06
2022-12-27T12:44:00.703Z,102198.31
2022-12-27T12:47:02.661Z,102190.63
2022-12-27T12:49:52.517Z,102190.75
2022-12-27T12:52:25.920Z,102182.84
2022-12-27T12:55:05.634Z,102189.72
2022-12-27T12:57:36.252Z,102184.38
2022-12-27T13:00:25.257Z,102178.97
2022-12-27T13:03:28.048Z,102170.19
2022-12-27T13:06:14.253Z,102172.78
2022-12-27T13:09:10.260Z,102165.63
2022-12-27T13:12:03.437Z,102166.53
2022-12-27T13:14:51.825Z,102162.88
2022-12-27T13:17:28.319Z,102161.19
2022-12-27T13:20:06.789Z,102167.38
2022-12-27T13:22:58.864Z,102155.13
2022-12-27T13:25:50.129Z,102149.97
2022-12-27T13:28:38.366Z,102152.56
2022-12-27T13:31:19.369Z,102143.88
2022-12-27T13:34:17.471Z,102136.88
2022-12-27T13:37:09.189Z,102140.31
2022-12-27T13:40:09.076Z,102129.75
2022-12-27T13:42:44.325Z,102127.94
2022-12-27T13:45:39.789Z,102126.91
2022-12-27T13:48:07.155Z,102127.75
2022-12-27T13:50:40.650Z,102119.75
2022-12-27T13:53:17.688Z,102128.28
2022-12-27T13:56:52.922Z,102115.91
2022-12-27T13:59:37.821Z,102117.31
2022-12-27T14:02:37.853Z,102112.78
2022-12-27T14:05:14.307Z,102115.25
2022-12-27T14:07:50.632Z,102108.97
2022-12-27T14:10:46.515Z,102118.47
2022-12-27T14:13:19.196Z,102114.78
2022-12-27T14:16:05.120Z,102104.09
2022-12-27T14:18:45.545Z,102109.19
2022-12-27T14:21:21.820Z,102111.63
2022-12-27T14:24:27.906Z,102105.28
2022-12-27T14:27:16.642Z,102099.88
2022-12-27T14:29:50.208Z,102096.28
2022-12-27T14:32:20.526Z,102104.06
2022-12-27T14:35:00.715Z,102100.47
2022-12-27T14:37:49.874Z,102095.25
2022-12-27T14:40:17.522Z,102096.97
2022-12-27T14:43:28.482Z,102104.72
2022-12-27T14:46:25.389Z,102096.97
2022-12-27T14:49:10.918Z,102090.09
2022-12-27T14:52:13.706Z,102095.38
2022-12-27T14:55:18.546Z,102092.84
2022-12-27T14:58:18.064Z,102089.44
2022-12-27T15:01:23.129Z,102085.94
2022-12-27T15:04:07.772Z,102085.84
2022-12-27T15:07:12.128Z,102083.16
2022-12-27T15:09:52.436Z,102082.19
2022-12-27T15:12:28.815Z,102077.69
2022-12-27T15:15:21.444Z,102080.31
2022-12-27T15:18:38.726Z,102071.59
2022-12-27T15:21:18.694Z,102074.22
2022-12-27T15:23:59.665Z,102067.22
2022-12-27T15:26:55.153Z,102068.03
2022-12-27T15:29:33.547Z,102075.72
2022-12-27T15:32:52.873Z,102076.47
2022-12-27T15:35:45.844Z,102070.34
2022-12-27T15:38:41.376Z,102061.63
2022-12-27T15:41:08.685Z,102064.00
2022-12-27T15:44:05.629Z,102067.38
2022-12-27T15:47:04.247Z,102063.81
2022-12-27T15:49:50.728Z,102060.16
2022-12-27T15:52:28.409Z,102057.38
2022-12-27T15:55:33.450Z,102063.44
2022-12-27T15:58:05.847Z,102062.38
2022-12-27T16:00:34.848Z,102049.09
2022-12-27T16:03:25.821Z,102055.16
2022-12-27T16:05:55.927Z,102064.63
2022-12-27T16:08:32.544Z,102051.34
2022-12-27T16:11:02.927Z,102055.69
2022-12-27T16:13:46.792Z,102040.78
2022-12-27T16:16:37.310Z,102042.41
2022-12-27T16:19:22.675Z,102038.00
2022-12-27T16:21:50.414Z,102045.91
2022-12-27T16:24:25.483Z,102042.47
2022-12-27T16:27:04.899Z,102037.41
2022-12-27T16:29:35.163Z,102034.88
2022-12-27T16:32:23.256Z,102030.72
2022-12-27T16:34:55.438Z,102037.78
2022-12-27T16:37:44.907Z,102031.81
2022-12-27T16:40:40.725Z,102029.34
2022-12-27T16:43:08.285Z,102015.50
2022-12-27T16:45:39.910Z,102019.88
2022-12-27T16:48:27.453Z,102018.16
2022-12-27T16:51:06.914Z,102010.31
2022-12-27T16:53:42.459Z,102007.59
2022-12-27T16:56:20.633Z,102004.03
2022-12-27T16:58:48.710Z,101998.66
2022-12-27T17:01:19.202Z,101993.28
2022-12-27T17:03:48.536Z,101995.66
2022-12-27T17:06:34.821Z,101984.19
2022-12-27T17:09:08.500Z,101997.91
2022-12-27T17:12:01.772Z,101989.13
2022-12-27T17:14:35.097Z,101982.88
2022-12-27T17:17:23.658Z,101977.56
2022-12-27T17:19:56.891Z,101977.50
2022-12-27T17:22:32.119Z,101968.69
2022-12-27T17:25:03.148Z,101959.03
2022-12-27T17:27:58.761Z,101954.53
2022-12-27T17:30:44.158Z,101944.06
2022-12-27T17:33:17.844Z,101937.88
2022-12-27T17:36:11.759Z,101933.31
2022-12-27T17:39:16.602Z,101920.06
2022-12-27T17:42:11.907Z,101927.69
2022-12-27T17:45:01.282Z,101924.75
2022-12-27T17:47:55.300Z,101928.91
2022-12-27T17:50:28.750Z,101925.22
2022-12-27T17:53:42.515Z,101912.91
2022-12-27T17:56:36.851Z,101915.38
2022-12-27T17:59:07.234Z,101910.91
2022-12-27T18:01:53.083Z,101915.13
2022-12-27T18:04:32.035Z,101916.03
2022-12-27T18:07:05.626Z,101901.22
2022-12-27T18:09:38.181Z,101901.22
2022-12-27T18:12:19.015Z,101894.28
2022-12-27T18:14:53.181Z,101894.47
2022-12-27T18:17:34.940Z,101893.78
2022-12-27T18:20:27.075Z,101888.84
2022-12-27T18:22:54.387Z,101891.69
2022-12-27T18:25:24.979Z,101886.69
2022-12-27T18:28:17.500Z,101886.09
2022-12-27T18:30:57.127Z,101886.34
2022-12-27T18:33:48.936Z,101886.59
2022-12-27T18:36:50.671Z,101884.13
2022-12-27T18:39:33.835Z,101877.31
2022-12-27T18:42:06.066Z,101867.84
2022-12-27T18:44:45.091Z,101869.69
2022-12-27T18:47:23.138Z,101857.59
2022-12-27T18:50:01.699Z,101858.63
2022-12-27T18:52:34.992Z,101862.28
2022-12-27T18:55:13.750Z,101858.03
2022-12-27T18:57:41.111Z,101846.03
2022-12-27T19:00:24.673Z,101838.34
2022-12-27T19:02:54.588Z,101841.06
2022-12-27T19:05:24.777Z,101834.22
2022-12-27T19:07:58.247Z,101837.78
2022-12-27T19:10:28.297Z,101833.59
2022-12-27T19:12:56.670Z,101820.69
2022-12-27T19:15:28.465Z,101813.81
2022-12-27T19:18:02.003Z,101814.78
2022-12-27T19:20:40.255Z,101817.56
2022-12-27T19:23:31.696Z,101799.44
2022-12-27T19:26:16.209Z,101809.19
2022-12-27T19:28:45.689Z,101818.06
2022-12-27T19:31:22.184Z,101803.50
2022-12-27T19:34:02.604Z,101804.53
2022-12-27T19:36:42.340Z,101803.81
2022-12-27T19:39:21.142Z,101789.13
2022-12-27T19:41:49.918Z,101784.06
2022-12-27T19:44:18.088Z,101778.91
2022-12-27T19:46:46.329Z,101774.72
2022-12-27T19:52:01.203Z,101749.63
2022-12-27T19:54:29.464Z,101750.59
2022-12-27T19:56:57.044Z,101743.78
2022-12-27T19:59:25.235Z,101745.50
2022-12-27T20:01:53.346Z,101736.81
2022-12-27T20:04:20.828Z,101732.56
2022-12-27T20:06:50.540Z,101722.09
2022-12-27T20:09:19.932Z,101730.84
2022-12-27T20:11:49.403Z,101726.50
2022-12-27T20:14:18.023Z,101721.28
2022-12-27T20:16:46.915Z,101721.28
2022-12-27T20:19:18.425Z,101722.09
2022-12-27T20:21:46.822Z,101723.91
2022-12-27T20:24:14.723Z,101710.78
2022-12-27T20:26:42.840Z,101702.88
2022-12-27T20:29:12.746Z,101704.59
2022-12-27T20:31:45.222Z,101703.72
2022-12-27T20:34:12.939Z,101701.13
2022-12-27T20:36:41.688Z,101701.94
2022-12-27T20:39:09.628Z,101700.16
2022-12-27T20:41:37.416Z,101695.88
2022-12-27T20:44:05.603Z,101691.63
2022-12-27T20:46:32.854Z,101677.69
2022-12-27T20:49:02.037Z,101676.91
2022-12-27T20:51:32.051Z,101677.84
2022-12-27T20:54:02.402Z,101676.19
2022-12-27T20:56:31.852Z,101677.19
2022-12-27T20:58:59.529Z,101665.16
2022-12-27T21:01:27.554Z,101655.66
2022-12-27T21:03:56.726Z,101650.50
2022-12-27T21:06:26.643Z,101653.19
2022-12-27T21:08:57.383Z,101653.22
2022-12-27T21:11:29.405Z,101649.00
2022-12-27T21:13:58.306Z,101637.72
2022-12-27T21:16:28.308Z,101636.06
2022-12-27T21:18:56.321Z,101627.41
2022-12-27T21:21:28.779Z,101633.56
2022-12-27T21:23:58.849Z,101624.88
2022-12-27T21:26:31.733Z,101621.53
2022-12-27T21:29:01.931Z,101610.28
2022-12-27T21:31:31.089Z,101617.34
2022-12-27T21:34:01.742Z,101613.06
2022-12-27T21:36:31.595Z,101601.72
2022-12-27T21:38:59.353Z,101592.16
2022-12-27T21:41:29.908Z,101604.41
2022-12-27T21:43:57.534Z,101595.72
2022-12-27T21:46:34.011Z,101587.06
2022-12-27T21:49:04.851Z,101587.94
2022-12-27T21:51:32.707Z,101580.09
2022-12-27T21:54:00.992Z,101581.81
2022-12-27T21:56:30.897Z,101575.72
2022-12-27T21:59:00.650Z,101576.59
2022-12-27T22:01:50.306Z,101573.03
2022-12-27T22:04:19.270Z,101574.78
2022-12-27T22:06:47.783Z,101564.25
2022-12-27T22:09:17.051Z,101561.66
2022-12-27T22:11:44.489Z,101549.34
2022-12-27T22:14:11.839Z,101544.09
2022-12-27T22:16:40.103Z,101535.41
2022-12-27T22:19:09.484Z,101539.75
2022-12-27T22:21:38.193Z,101537.06
2022-12-27T22:24:06.542Z,101524.88
2022-12-27T22:26:39.448Z,101527.41
2022-12-27T22:29:08.111Z,101517.91
2022-12-27T22:31:37.850Z,101521.31
2022-12-27T22:34:06.381Z,101503.88
2022-12-27T22:36:34.381Z,101495.13
2022-12-27T22:39:02.815Z,101500.44
2022-12-27T22:41:35.513Z,101492.59
2022-12-27T22:44:06.244Z,101490.88
2022-12-27T22:49:22.010Z,101493.53
2022-12-27T22:51:49.300Z,101490.09
2022-12-27T22:54:16.657Z,101491.84
2022-12-27T22:56:44.532Z,101495.44
2022-12-27T22:59:16.354Z,101491.91
2022-12-27T23:01:46.378Z,101494.47
2022-12-27T23:04:14.760Z,101496.13
2022-12-27T23:06:42.524Z,101489.03
2022-12-27T23:09:09.996Z,101482.00
2022-12-27T23:11:41.153Z,101471.41
2022-12-27T23:14:15.772Z,101467.88
2022-12-27T23:16:49.060Z,101458.22
2022-12-27T23:19:19.419Z,101454.53
2022-12-27T23:21:47.909Z,101449.16
2022-12-27T23:24:15.471Z,101439.47
2022-12-27T23:26:44.175Z,101441.06
2022-12-27T23:29:14.527Z,101436.66
2022-12-27T23:31:55.298Z,101429.63
2022-12-27T23:34:28.739Z,101422.53
2022-12-27T23:36:58.331Z,101426.00
2022-12-27T23:39:26.065Z,101418.97
2022-12-27T23:41:53.432Z,101406.72
2022-12-27T23:44:33.788Z,101400.59
2022-12-27T23:47:05.748Z,101392.66
2022-12-27T23:49:34.215Z,101392.53
2022-12-27T23:52:01.950Z,101375.94
2022-12-27T23:54:35.990Z,101371.50
2022-12-27T23:57:20.194Z,101361.88
2022-12-27T23:59:51.256Z,101364.41
